Time;durP1;ratioP1;P1;durP2;ratioP2;P2;SDS_P1;SDS_P2;PMS_P1;PMS_P2;Temp;Humidity;BMP_temperature;BMP_pressure;BME280_temperature;BME280_humidity;BME280_pressure;Samples;Min_cycle;Max_cycle;Signal;HPM_P1;HPM_P2
2023/04/24 00:01:53;;;;;;;2.45;1.20;;;;;12.60;97377.00;;;;5051966;28;20095;-57
2023/04/24 00:04:19;;;;;;;2.05;1.13;;;;;12.60;97374.00;;;;5053121;28;20068;-56
2023/04/24 00:06:49;;;;;;;2.40;1.30;;;;;12.60;97374.00;;;;5053362;28;20099;-57
2023/04/24 00:09:15;;;;;;;2.83;1.13;;;;;12.60;97386.00;;;;5053094;28;20452;-58
2023/04/24 00:11:42;;;;;;;1.48;1.00;;;;;12.60;97380.00;;;;5053183;28;20048;-56
2023/04/24 00:14:08;;;;;;;2.35;1.13;;;;;12.70;97369.00;;;;5053207;28;20048;-57
2023/04/24 00:16:35;;;;;;;2.33;1.20;;;;;12.70;97371.00;;;;5053244;28;20132;-58
2023/04/24 00:19:02;;;;;;;2.38;1.00;;;;;12.70;97364.00;;;;5052652;28;20430;-58
2023/04/24 00:21:28;;;;;;;1.85;0.80;;;;;12.80;97365.00;;;;5052976;28;20053;-58
2023/04/24 00:23:55;;;;;;;2.55;0.80;;;;;12.80;97366.00;;;;5053123;28;20049;-56
2023/04/24 00:26:21;;;;;;;4.13;1.20;;;;;12.80;97359.00;;;;5052683;28;20040;-57
2023/04/24 00:28:48;;;;;;;3.53;1.42;;;;;12.80;97353.00;;;;5051955;28;20094;-57
2023/04/24 00:31:14;;;;;;;1.90;1.00;;;;;12.80;97349.00;;;;5052682;28;20049;-57
2023/04/24 00:33:41;;;;;;;2.55;1.38;;;;;12.80;97367.00;;;;5051538;28;20480;-59
2023/04/24 00:36:08;;;;;;;0.90;0.85;;;;;12.80;97353.00;;;;5051432;28;20045;-57
2023/04/24 00:38:34;;;;;;;4.82;1.10;;;;;12.70;97349.00;;;;5052449;28;20429;-57
2023/04/24 00:41:02;;;;;;;3.15;1.23;;;;;12.80;97341.00;;;;5051404;28;20056;-57
2023/04/24 00:43:29;;;;;;;1.70;0.90;;;;;12.70;97341.00;;;;5018542;28;20052;-57
2023/04/24 00:45:57;;;;;;;2.42;0.90;;;;;12.70;97352.00;;;;5051411;28;20056;-57
2023/04/24 00:48:24;;;;;;;4.38;1.35;;;;;12.70;97357.00;;;;5052573;28;20055;-57
2023/04/24 00:50:51;;;;;;;1.95;1.13;;;;;12.80;97354.00;;;;5051278;28;20044;-58
2023/04/24 00:53:17;;;;;;;2.33;1.00;;;;;12.80;97362.00;;;;5052455;28;20052;-56
2023/04/24 00:55:45;;;;;;;2.53;1.00;;;;;12.80;97355.00;;;;5051168;28;20502;-58
2023/04/24 00:58:12;;;;;;;3.08;0.98;;;;;12.70;97354.00;;;;5050873;28;20406;-58
2023/04/24 01:00:39;;;;;;;3.35;1.10;;;;;12.80;97356.00;;;;5052484;28;20405;-57
2023/04/24 01:03:06;;;;;;;1.75;1.30;;;;;12.80;97363.00;;;;5050672;28;20053;-57
2023/04/24 01:05:34;;;;;;;1.75;0.90;;;;;12.80;97350.00;;;;5034303;28;20391;-58
2023/04/24 01:08:01;;;;;;;3.60;1.10;;;;;12.80;97361.00;;;;5052195;28;20048;-57
2023/04/24 01:10:30;;;;;;;3.42;1.10;;;;;12.80;97350.00;;;;5051948;28;20049;-57
2023/04/24 01:12:58;;;;;;;3.28;1.08;;;;;12.90;97351.00;;;;5052126;28;20049;-57
2023/04/24 01:15:25;;;;;;;4.05;1.00;;;;;12.90;97354.00;;;;5051080;28;20395;-55
2023/04/24 01:17:51;;;;;;;4.80;1.17;;;;;12.90;97367.00;;;;5050786;28;20048;-58
2023/04/24 01:20:20;;;;;;;2.47;1.10;;;;;12.90;97373.00;;;;5050686;28;20094;-57
2023/04/24 01:22:47;;;;;;;1.80;1.10;;;;;12.90;97371.00;;;;5051813;28;20486;-58
2023/04/24 01:25:14;;;;;;;2.15;0.80;;;;;12.90;97379.00;;;;5052109;28;20530;-56
2023/04/24 01:27:41;;;;;;;2.17;0.80;;;;;12.70;97377.00;;;;5050524;28;20041;-59
2023/04/24 01:30:09;;;;;;;9.93;1.40;;;;;12.60;97365.00;;;;5051703;28;20045;-57
2023/04/24 01:32:36;;;;;;;2.80;0.90;;;;;12.40;97399.00;;;;5050584;28;20052;-57
2023/04/24 01:35:03;;;;;;;1.15;0.75;;;;;12.30;97402.00;;;;5050519;28;20044;-58
2023/04/24 01:37:32;;;;;;;0.95;0.88;;;;;12.00;97401.00;;;;5051726;28;20116;-56
2023/04/24 01:39:59;;;;;;;2.65;0.80;;;;;11.80;97399.00;;;;5055537;28;20128;-57
2023/04/24 01:42:25;;;;;;;2.08;0.70;;;;;11.70;97397.00;;;;5056114;28;20040;-56
2023/04/24 01:44:52;;;;;;;1.27;1.00;;;;;11.70;97396.00;;;;5054708;28;20375;-56
2023/04/24 01:47:19;;;;;;;2.55;0.80;;;;;11.60;97409.00;;;;5054706;28;20049;-57
2023/04/24 01:49:48;;;;;;;1.10;1.00;;;;;11.60;97415.00;;;;5055345;28;20056;-57
2023/04/24 01:52:14;;;;;;;1.05;0.95;;;;;11.60;97417.00;;;;5055996;28;20102;-57
2023/04/24 01:54:41;;;;;;;1.70;1.20;;;;;11.60;97422.00;;;;5054957;28;20799;-57
2023/04/24 01:57:08;;;;;;;1.92;1.33;;;;;11.50;97420.00;;;;5054982;28;20509;-58
2023/04/24 01:59:36;;;;;;;1.50;1.20;;;;;11.50;97418.00;;;;5054806;28;20517;-56
2023/04/24 02:02:03;;;;;;;2.30;1.30;;;;;11.50;97408.00;;;;5054495;28;20053;-56
2023/04/24 02:04:30;;;;;;;1.75;1.48;;;;;11.50;97418.00;;;;5054230;28;20456;-57
2023/04/24 02:06:56;;;;;;;1.55;1.45;;;;;11.40;97420.00;;;;5054293;28;20049;-57
2023/04/24 02:09:24;;;;;;;1.48;1.38;;;;;11.40;97418.00;;;;5055245;28;20033;-55
2023/04/24 02:11:51;;;;;;;3.83;1.40;;;;;11.40;97426.00;;;;5054419;28;20076;-58
2023/04/24 02:14:17;;;;;;;3.30;1.95;;;;;11.30;97428.00;;;;5055899;28;20491;-59
2023/04/24 02:16:44;;;;;;;2.15;1.80;;;;;11.30;97425.00;;;;5054318;28;20056;-59
2023/04/24 02:19:10;;;;;;;1.77;1.67;;;;;11.30;97429.00;;;;5053854;28;20053;-59
2023/04/24 02:21:37;;;;;;;4.07;1.73;;;;;11.40;97434.00;;;;5055423;28;20541;-59
2023/04/24 02:24:03;;;;;;;2.60;1.70;;;;;11.40;97428.00;;;;5055596;28;20098;-59
2023/04/24 02:26:31;;;;;;;1.88;1.77;;;;;11.30;97420.00;;;;5054969;28;20049;-58
2023/04/24 02:28:58;;;;;;;17.35;2.55;;;;;11.30;97427.00;;;;5054981;28;20413;-57
2023/04/24 02:31:24;;;;;;;2.00;1.90;;;;;11.40;97425.00;;;;5056797;28;20456;-58
2023/04/24 02:33:51;;;;;;;3.25;1.92;;;;;11.50;97426.00;;;;5055762;28;20049;-58
2023/04/24 02:36:17;;;;;;;2.47;2.03;;;;;11.50;97422.00;;;;5055250;28;20091;-59
2023/04/24 02:38:44;;;;;;;2.47;2.20;;;;;11.40;97416.00;;;;5054566;28;20564;-58
2023/04/24 02:41:12;;;;;;;3.13;2.00;;;;;11.40;97422.00;;;;5056110;28;20107;-58
2023/04/24 02:43:38;;;;;;;3.10;2.05;;;;;11.40;97437.00;;;;5056508;28;20060;-59
2023/04/24 02:46:05;;;;;;;2.30;2.10;;;;;11.40;97432.00;;;;5056126;28;20044;-58
2023/04/24 02:48:31;;;;;;;3.10;2.00;;;;;11.40;97427.00;;;;5056914;28;20053;-58
2023/04/24 02:50:58;;;;;;;2.30;1.85;;;;;11.40;97424.00;;;;5056357;28;20041;-58
2023/04/24 02:53:25;;;;;;;2.67;2.10;;;;;11.40;97436.00;;;;5056938;28;20040;-58
2023/04/24 02:55:51;;;;;;;3.45;1.90;;;;;11.40;97442.00;;;;5057932;28;20053;-58
2023/04/24 02:58:19;;;;;;;2.53;1.90;;;;;11.40;97451.00;;;;5055866;28;20049;-58
2023/04/24 03:00:47;;;;;;;2.58;2.08;;;;;11.40;97445.00;;;;5056580;28;20087;-58
2023/04/24 03:03:15;;;;;;;2.20;1.90;;;;;11.40;97454.00;;;;5054923;28;20045;-62
2023/04/24 03:05:44;;;;;;;3.70;2.13;;;;;11.40;97462.00;;;;5055662;28;20051;-57
2023/04/24 03:08:11;;;;;;;2.22;1.70;;;;;11.30;97461.00;;;;5054573;28;20056;-59
2023/04/24 03:10:37;;;;;;;3.35;2.00;;;;;11.30;97457.00;;;;5054031;28;20090;-59
2023/04/24 03:13:04;;;;;;;3.20;2.20;;;;;11.20;97472.00;;;;5055487;28;20052;-59
2023/04/24 03:15:31;;;;;;;2.50;1.83;;;;;11.20;97474.00;;;;5038529;28;20045;-58
2023/04/24 03:17:57;;;;;;;4.50;2.08;;;;;11.10;97484.00;;;;5055782;28;20405;-58
2023/04/24 03:20:24;;;;;;;3.35;2.90;;;;;11.00;97477.00;;;;5054569;28;20045;-58
2023/04/24 03:22:51;;;;;;;2.42;2.20;;;;;10.90;97474.00;;;;5053784;28;20140;-57
2023/04/24 03:25:18;;;;;;;5.18;2.50;;;;;10.80;97475.00;;;;5054541;28;20049;-58
2023/04/24 03:27:45;;;;;;;3.17;2.78;;;;;10.70;97469.00;;;;5054583;28;20049;-58
2023/04/24 03:30:39;;;;;;;8.50;2.72;;;;;10.70;97475.00;;;;5054055;28;20102;-58
2023/04/24 03:33:07;;;;;;;3.28;2.88;;;;;10.60;97483.00;;;;5053940;28;20053;-59
2023/04/24 03:35:37;;;;;;;4.15;2.63;;;;;10.60;97478.00;;;;5053860;28;20056;-58
2023/04/24 03:38:08;;;;;;;4.05;2.83;;;;;10.60;97474.00;;;;5054048;28;20048;-58
2023/04/24 03:40:37;;;;;;;4.40;2.65;;;;;10.60;97473.00;;;;5055409;28;20467;-57
2023/04/24 03:43:13;;;;;;;3.03;2.72;;;;;10.50;97471.00;;;;5053586;28;20118;-58
2023/04/24 03:45:40;;;;;;;3.88;3.17;;;;;10.40;97472.00;;;;5053444;28;20045;-57
2023/04/24 03:48:08;;;;;;;3.35;3.03;;;;;10.40;97473.00;;;;5053433;28;20045;-58
2023/04/24 03:50:36;;;;;;;3.45;2.95;;;;;10.40;97471.00;;;;5053335;28;20041;-56
2023/04/24 03:53:03;;;;;;;3.70;3.40;;;;;10.40;97473.00;;;;5053633;28;20049;-58
2023/04/24 03:55:37;;;;;;;;;;;;;10.40;97468.00;;;;5038823;28;20044;-57
2023/04/24 03:58:05;;;;;;;4.10;3.40;;;;;10.30;97474.00;;;;5053255;28;19988;-58
2023/04/24 04:00:33;;;;;;;3.35;3.03;;;;;10.40;97476.00;;;;5053181;28;20052;-58
2023/04/24 04:03:19;;;;;;;4.07;2.92;;;;;10.40;97478.00;;;;5052340;28;20057;-58
2023/04/24 04:05:46;;;;;;;3.53;3.15;;;;;10.40;97480.00;;;;5052193;28;20048;-58
2023/04/24 04:08:13;;;;;;;4.95;3.28;;;;;10.40;97483.00;;;;5051848;28;20041;-58
2023/04/24 04:10:40;;;;;;;3.67;3.25;;;;;10.50;97490.00;;;;5051844;28;20456;-58
2023/04/24 04:13:06;;;;;;;4.65;3.53;;;;;10.60;97479.00;;;;5052015;28;20449;-57
2023/04/24 04:15:34;;;;;;;5.05;3.28;;;;;10.60;97486.00;;;;5052325;28;20569;-57
2023/04/24 04:18:01;;;;;;;6.97;3.80;;;;;10.60;97495.00;;;;5053218;28;20516;-59
2023/04/24 04:20:28;;;;;;;4.95;3.13;;;;;10.70;97502.00;;;;5051757;28;20076;-57
2023/04/24 04:22:55;;;;;;;7.18;4.38;;;;;10.70;97502.00;;;;5052572;28;20506;-57
2023/04/24 04:25:33;;;;;;;5.53;3.75;;;;;10.80;97514.00;;;;5052127;28;20139;-57
2023/04/24 04:27:59;;;;;;;4.30;3.67;;;;;10.70;97512.00;;;;5051610;28;20049;-58
2023/04/24 04:30:29;;;;;;;7.38;4.65;;;;;10.70;97521.00;;;;5051376;28;20387;-59
2023/04/24 04:33:02;;;;;;;6.00;4.18;;;;;10.70;97516.00;;;;5051476;28;20045;-57
2023/04/24 04:35:30;;;;;;;5.07;3.83;;;;;10.70;97518.00;;;;5051857;28;20052;-57
2023/04/24 04:37:58;;;;;;;6.93;3.95;;;;;10.70;97520.00;;;;5051668;28;20056;-58
2023/04/24 04:40:35;;;;;;;5.85;4.50;;;;;10.60;97524.00;;;;5051258;28;20131;-58
2023/04/24 04:43:04;;;;;;;6.65;4.13;;;;;10.60;97528.00;;;;5051277;28;20079;-57
2023/04/24 04:45:38;;;;;;;7.10;4.18;;;;;10.60;97530.00;;;;5052113;28;20120;-58
2023/04/24 04:48:23;;;;;;;6.47;4.85;;;;;10.60;97530.00;;;;5053007;28;20215;-57
2023/04/24 04:50:51;;;;;;;7.53;4.50;;;;;10.60;97531.00;;;;5050997;28;20049;-58
2023/04/24 04:53:20;;;;;;;5.28;4.63;;;;;10.60;97537.00;;;;5050948;28;20505;-59
2023/04/24 04:55:47;;;;;;;6.30;4.93;;;;;10.60;97533.00;;;;5051538;28;20045;-58
2023/04/24 04:58:15;;;;;;;7.28;4.80;;;;;10.50;97531.00;;;;5050843;28;20375;-57
2023/04/24 05:00:44;;;;;;;5.90;4.15;;;;;10.60;97524.00;;;;5050886;28;20045;-56
2023/04/24 05:03:20;;;;;;;5.63;4.47;;;;;10.50;97535.00;;;;5035796;28;20647;-57
2023/04/24 05:05:55;;;;;;;5.03;4.53;;;;;10.50;97536.00;;;;5051020;28;20049;-57
2023/04/24 05:08:23;;;;;;;5.60;4.40;;;;;10.50;97533.00;;;;5051149;28;20143;-57
2023/04/24 05:10:54;;;;;;;5.20;4.53;;;;;10.50;97532.00;;;;5034680;28;20073;-57
2023/04/24 05:13:21;;;;;;;5.65;4.55;;;;;10.60;97540.00;;;;5050403;28;20055;-59
2023/04/24 05:16:07;;;;;;;6.22;4.25;;;;;10.70;97547.00;;;;5036989;28;20136;-57
2023/04/24 05:18:34;;;;;;;5.75;4.90;;;;;10.70;97548.00;;;;5050427;28;20037;-58
2023/04/24 05:21:01;;;;;;;5.82;5.20;;;;;10.70;97552.00;;;;5050779;28;20045;-59
2023/04/24 05:23:27;;;;;;;6.43;4.63;;;;;10.70;97556.00;;;;5050917;28;20067;-57
2023/04/24 05:25:56;;;;;;;5.97;4.45;;;;;10.60;97553.00;;;;5050771;28;20072;-57
2023/04/24 05:28:22;;;;;;;5.70;4.75;;;;;10.60;97554.00;;;;5050600;28;20060;-58
2023/04/24 05:31:02;;;;;;;6.97;5.18;;;;;10.70;97553.00;;;;5050623;28;20056;-57
2023/04/24 05:33:29;;;;;;;9.85;5.57;;;;;10.60;97559.00;;;;5034249;28;20049;-57
2023/04/24 05:35:56;;;;;;;8.48;5.10;;;;;10.70;97561.00;;;;5050549;28;20099;-57
2023/04/24 05:38:23;;;;;;;9.25;5.32;;;;;10.70;97560.00;;;;5050641;28;20048;-56
2023/04/24 05:40:49;;;;;;;5.60;4.95;;;;;10.70;97560.00;;;;5050536;28;20703;-57
2023/04/24 05:43:16;;;;;;;8.02;5.63;;;;;10.70;97562.00;;;;5050401;28;20053;-58
2023/04/24 05:45:43;;;;;;;7.90;5.05;;;;;10.70;97566.00;;;;5050680;28;20053;-57
2023/04/24 05:48:09;;;;;;;6.10;4.20;;;;;10.60;97567.00;;;;5050934;28;20076;-58
2023/04/24 05:50:36;;;;;;;5.95;5.00;;;;;10.50;97577.00;;;;5050729;28;20064;-59
2023/04/24 05:53:03;;;;;;;6.93;4.93;;;;;10.50;97580.00;;;;5050859;28;20072;-56
2023/04/24 05:55:36;;;;;;;8.38;5.53;;;;;10.60;97588.00;;;;5051027;28;20045;-56
2023/04/24 05:58:03;;;;;;;7.57;4.82;;;;;10.70;97585.00;;;;5033907;28;20131;-57
2023/04/24 06:00:30;;;;;;;7.45;4.75;;;;;10.80;97590.00;;;;5050292;28;20052;-58
2023/04/24 06:03:03;;;;;;;5.60;4.45;;;;;10.90;97593.00;;;;5050446;28;20505;-58
2023/04/24 06:05:31;;;;;;;5.68;4.25;;;;;10.90;97592.00;;;;5050477;28;20052;-57
2023/04/24 06:08:01;;;;;;;5.55;4.05;;;;;10.90;97589.00;;;;5051220;28;20514;-58
2023/04/24 06:10:33;;;;;;;5.40;3.65;;;;;10.90;97597.00;;;;5050920;28;20132;-57
2023/04/24 06:13:00;;;;;;;4.80;3.83;;;;;10.90;97598.00;;;;5051173;28;20060;-57
2023/04/24 06:15:32;;;;;;;4.18;3.60;;;;;11.00;97594.00;;;;5052089;28;20520;-59
2023/04/24 06:18:05;;;;;;;4.13;3.47;;;;;11.10;97605.00;;;;5050726;28;20183;-59
2023/04/24 06:20:32;;;;;;;3.95;3.17;;;;;11.10;97608.00;;;;5050653;28;20045;-58
2023/04/24 06:23:01;;;;;;;5.13;3.80;;;;;11.20;97606.00;;;;5052149;28;20049;-58
2023/04/24 06:25:27;;;;;;;4.95;2.80;;;;;11.30;97601.00;;;;5052867;28;20053;-59
2023/04/24 06:27:55;;;;;;;3.55;3.10;;;;;11.50;97604.00;;;;5055400;28;20413;-59
2023/04/24 06:30:22;;;;;;;4.32;3.22;;;;;11.70;97610.00;;;;5055094;28;20083;-58
2023/04/24 06:32:48;;;;;;;3.10;2.75;;;;;11.80;97619.00;;;;5055340;28;20402;-58
2023/04/24 06:35:15;;;;;;;3.10;2.80;;;;;11.70;97624.00;;;;5054959;28;20048;-59
2023/04/24 06:37:42;;;;;;;2.50;2.30;;;;;11.60;97618.00;;;;5054860;28;20045;-57
2023/04/24 06:40:09;;;;;;;4.13;3.05;;;;;11.50;97626.00;;;;5054845;28;20048;-57
2023/04/24 06:42:36;;;;;;;4.53;2.33;;;;;11.40;97617.00;;;;5055137;28;20045;-58
2023/04/24 06:45:04;;;;;;;6.22;2.80;;;;;11.30;97627.00;;;;5055508;28;20402;-58
2023/04/24 06:47:31;;;;;;;4.10;2.78;;;;;11.20;97634.00;;;;5054884;28;20060;-58
2023/04/24 06:49:58;;;;;;;3.15;2.80;;;;;11.20;97640.00;;;;5054602;28;20047;-58
2023/04/24 06:52:24;;;;;;;3.13;2.63;;;;;11.20;97643.00;;;;5054662;28;20099;-59
2023/04/24 06:54:51;;;;;;;3.38;2.53;;;;;11.30;97634.00;;;;5054818;28;20136;-57
2023/04/24 06:57:19;;;;;;;3.35;2.85;;;;;11.40;97634.00;;;;5054911;28;20045;-57
2023/04/24 06:59:46;;;;;;;4.97;2.97;;;;;11.60;97635.00;;;;5054279;28;20044;-55
2023/04/24 07:02:12;;;;;;;3.10;2.30;;;;;11.60;97643.00;;;;5054379;28;20071;-57
2023/04/24 07:04:39;;;;;;;2.30;2.08;;;;;11.70;97646.00;;;;5054251;28;20513;-56
2023/04/24 07:07:06;;;;;;;3.67;2.80;;;;;11.90;97646.00;;;;5054381;28;20048;-55
2023/04/24 07:09:35;;;;;;;4.55;2.83;;;;;11.90;97660.00;;;;5054404;28;20045;-57
2023/04/24 07:12:01;;;;;;;4.53;2.83;;;;;11.80;97652.00;;;;5054473;28;20135;-56
2023/04/24 07:14:28;;;;;;;2.50;2.30;;;;;11.80;97664.00;;;;5054599;28;20051;-57
2023/04/24 07:16:54;;;;;;;4.82;2.33;;;;;11.90;97665.00;;;;5054485;28;20044;-57
2023/04/24 07:19:21;;;;;;;2.67;2.05;;;;;11.90;97664.00;;;;5053748;28;20107;-58
2023/04/24 07:21:47;;;;;;;2.10;1.80;;;;;11.90;97662.00;;;;5054209;28;20040;-58
2023/04/24 07:24:14;;;;;;;2.42;2.03;;;;;11.80;97652.00;;;;5054272;28;20048;-58
2023/04/24 07:26:41;;;;;;;2.78;2.22;;;;;11.80;97663.00;;;;5054227;28;20052;-59
2023/04/24 07:29:07;;;;;;;3.42;2.25;;;;;11.70;97669.00;;;;5054076;28;20394;-57
2023/04/24 07:31:34;;;;;;;3.28;1.95;;;;;11.60;97663.00;;;;5054048;28;20124;-56
2023/04/24 07:34:01;;;;;;;2.63;2.20;;;;;11.70;97669.00;;;;5053635;28;20534;-58
2023/04/24 07:36:27;;;;;;;2.47;2.28;;;;;11.80;97674.00;;;;5053239;28;20413;-60
2023/04/24 07:38:56;;;;;;;3.03;2.50;;;;;12.00;97673.00;;;;5053615;28;20036;-57
2023/04/24 07:41:24;;;;;;;3.05;2.47;;;;;11.80;97688.00;;;;5053858;28;20049;-57
2023/04/24 07:43:51;;;;;;;3.20;2.30;;;;;11.60;97683.00;;;;5053930;28;20041;-58
2023/04/24 07:46:17;;;;;;;3.78;2.58;;;;;11.50;97684.00;;;;5054629;28;20095;-57
2023/04/24 07:48:44;;;;;;;3.90;2.22;;;;;11.40;97691.00;;;;5054315;28;20526;-57
2023/04/24 07:51:13;;;;;;;2.95;2.38;;;;;11.50;97687.00;;;;5054056;28;20059;-57
2023/04/24 07:53:39;;;;;;;3.33;2.50;;;;;11.50;97690.00;;;;5053960;28;20048;-58
2023/04/24 07:56:06;;;;;;;3.58;2.45;;;;;11.70;97699.00;;;;5053905;28;20048;-59
2023/04/24 07:58:34;;;;;;;3.95;2.60;;;;;11.90;97716.00;;;;5053901;28;20498;-58
2023/04/24 08:01:00;;;;;;;3.58;2.30;;;;;11.90;97714.00;;;;5054175;28;20099;-58
2023/04/24 08:03:27;;;;;;;2.75;2.28;;;;;11.80;97711.00;;;;5054068;28;20040;-57
2023/04/24 08:05:54;;;;;;;3.42;2.30;;;;;11.80;97707.00;;;;5054101;28;20045;-56
2023/04/24 08:08:22;;;;;;;3.00;2.28;;;;;11.70;97715.00;;;;5053668;28;20060;-58
2023/04/24 08:10:49;;;;;;;3.83;2.40;;;;;11.70;97727.00;;;;5053379;28;20037;-57
2023/04/24 08:13:15;;;;;;;4.07;2.40;;;;;11.60;97731.00;;;;5053413;28;20374;-58
2023/04/24 08:15:42;;;;;;;3.83;2.50;;;;;11.50;97733.00;;;;5055126;28;20041;-58
2023/04/24 08:18:11;;;;;;;4.20;2.63;;;;;11.50;97730.00;;;;5054796;28;20498;-58
2023/04/24 08:20:38;;;;;;;3.53;2.80;;;;;11.40;97734.00;;;;5053219;28;20037;-57
2023/04/24 08:23:04;;;;;;;6.78;2.92;;;;;11.40;97733.00;;;;5054454;28;20045;-58
2023/04/24 08:25:31;;;;;;;4.55;2.80;;;;;11.40;97735.00;;;;5054552;28;20052;-59
2023/04/24 08:27:57;;;;;;;4.85;3.25;;;;;11.40;97737.00;;;;5052563;28;20099;-58
2023/04/24 08:30:24;;;;;;;3.72;3.08;;;;;11.50;97743.00;;;;5053974;28;20048;-57
2023/04/24 08:32:50;;;;;;;4.13;2.90;;;;;11.60;97733.00;;;;5053199;28;20041;-57
2023/04/24 08:35:18;;;;;;;4.93;2.83;;;;;11.80;97724.00;;;;5053182;28;20405;-57
2023/04/24 08:37:45;;;;;;;3.30;3.00;;;;;11.90;97715.00;;;;5052190;28;20447;-57
2023/04/24 08:40:16;;;;;;;3.63;2.88;;;;;12.00;97739.00;;;;5052716;28;20049;-57
2023/04/24 08:42:44;;;;;;;3.85;3.03;;;;;11.90;97736.00;;;;5052920;28;20045;-58
2023/04/24 08:45:12;;;;;;;4.70;2.95;;;;;11.90;97745.00;;;;5052975;28;20045;-56
2023/04/24 08:47:40;;;;;;;4.45;2.75;;;;;11.90;97732.00;;;;5052355;28;20048;-56
2023/04/24 08:50:09;;;;;;;3.75;3.10;;;;;11.70;97737.00;;;;5052460;28;20120;-56
2023/04/24 08:52:36;;;;;;;4.78;3.30;;;;;11.60;97751.00;;;;5051576;28;20044;-57
2023/04/24 08:55:03;;;;;;;3.58;2.55;;;;;11.50;97737.00;;;;5051432;28;20049;-58
2023/04/24 08:57:31;;;;;;;3.75;2.95;;;;;11.50;97751.00;;;;5051565;28;20056;-62
2023/04/24 08:59:58;;;;;;;5.43;3.60;;;;;11.50;97756.00;;;;5052210;28;20040;-56
2023/04/24 09:02:25;;;;;;;4.78;3.55;;;;;11.50;97761.00;;;;5052282;28;20041;-57
2023/04/24 09:04:53;;;;;;;5.15;3.35;;;;;11.40;97767.00;;;;5052337;28;20045;-57
2023/04/24 09:07:22;;;;;;;4.22;3.22;;;;;11.40;97769.00;;;;5052307;28;20049;-56
2023/04/24 09:09:50;;;;;;;4.80;3.20;;;;;11.40;97755.00;;;;5052023;28;20033;-58
2023/04/24 09:12:18;;;;;;;3.22;2.92;;;;;11.40;97776.00;;;;5052524;28;20494;-57
2023/04/24 09:14:45;;;;;;;3.70;3.13;;;;;11.40;97786.00;;;;5052479;28;20390;-57
2023/04/24 09:17:12;;;;;;;5.72;3.63;;;;;11.30;97791.00;;;;5052160;28;20041;-57
2023/04/24 09:19:40;;;;;;;4.35;3.00;;;;;11.20;97787.00;;;;5050476;28;20417;-58
2023/04/24 09:22:08;;;;;;;3.20;2.90;;;;;11.20;97782.00;;;;5050746;28;20047;-57
2023/04/24 09:24:35;;;;;;;4.45;3.13;;;;;11.20;97786.00;;;;5052119;28;20049;-57
2023/04/24 09:27:02;;;;;;;3.85;2.95;;;;;11.20;97793.00;;;;5052002;28;20101;-57
2023/04/24 09:29:28;;;;;;;3.75;2.90;;;;;11.40;97788.00;;;;5051872;28;20040;-58
2023/04/24 09:31:55;;;;;;;3.67;2.95;;;;;11.70;97791.00;;;;5052037;28;20045;-58
2023/04/24 09:34:23;;;;;;;3.95;3.42;;;;;12.10;97794.00;;;;5051858;28;20446;-58
2023/04/24 09:36:50;;;;;;;4.82;2.95;;;;;12.30;97787.00;;;;5052345;28;20044;-58
2023/04/24 09:39:19;;;;;;;5.35;3.65;;;;;12.30;97794.00;;;;5052372;28;20049;-57
2023/04/24 09:41:56;;;;;;;5.10;3.38;;;;;12.30;97793.00;;;;5050563;28;20095;-58
2023/04/24 09:44:24;;;;;;;3.90;3.00;;;;;12.30;97808.00;;;;5051989;28;20033;-59
2023/04/24 09:46:58;;;;;;;6.40;3.20;;;;;12.20;97808.00;;;;5051853;28;20056;-57
2023/04/24 09:49:26;;;;;;;;;;;;;12.10;97810.00;;;;5051826;28;20497;-58
2023/04/24 09:52:03;;;;;;;5.90;3.67;;;;;12.00;97826.00;;;;5051617;28;20389;-57
2023/04/24 09:54:29;;;;;;;4.25;3.33;;;;;12.00;97817.00;;;;5051694;28;20048;-58
2023/04/24 09:56:56;;;;;;;7.70;5.60;;;;;11.90;97823.00;;;;5051632;28;20049;-59
2023/04/24 09:59:23;;;;;;;4.15;3.75;;;;;11.90;97824.00;;;;5052622;28;20040;-58
2023/04/24 10:01:50;;;;;;;7.72;5.03;;;;;11.90;97817.00;;;;5055630;28;20052;-57
2023/04/24 10:04:25;;;;;;;4.40;4.00;;;;;11.90;97827.00;;;;5054413;28;20049;-57
2023/04/24 10:06:54;;;;;;;7.10;3.97;;;;;11.80;97822.00;;;;5055462;28;20426;-59
2023/04/24 10:09:23;;;;;;;5.22;4.00;;;;;11.80;97813.00;;;;5056063;28;20098;-58
2023/04/24 10:11:52;;;;;;;5.30;3.58;;;;;11.90;97816.00;;;;5056413;28;20454;-59
2023/04/24 10:14:22;;;;;;;6.63;3.97;;;;;11.90;97826.00;;;;5056781;28;20508;-59
2023/04/24 10:16:52;;;;;;;6.43;4.22;;;;;11.80;97821.00;;;;5056952;28;20045;-58
2023/04/24 10:19:18;;;;;;;6.00;4.72;;;;;11.90;97819.00;;;;5056202;28;20037;-58
2023/04/24 10:21:48;;;;;;;4.13;3.70;;;;;12.10;97818.00;;;;5055791;28;20486;-60
2023/04/24 10:24:16;;;;;;;11.95;5.53;;;;;12.30;97824.00;;;;5056275;28;20055;-59
2023/04/24 10:26:44;;;;;;;6.60;4.78;;;;;12.60;97826.00;;;;5056372;28;20067;-59
2023/04/24 10:29:12;;;;;;;4.03;3.47;;;;;12.80;97831.00;;;;5055994;28;20651;-59
2023/04/24 10:31:40;;;;;;;5.47;4.30;;;;;13.00;97828.00;;;;5056099;28;20092;-58
2023/04/24 10:34:08;;;;;;;5.47;3.92;;;;;13.30;97830.00;;;;5055889;28;20053;-59
2023/04/24 10:36:38;;;;;;;6.18;4.05;;;;;13.50;97832.00;;;;5056222;28;20098;-58
2023/04/24 10:39:10;;;;;;;7.53;4.47;;;;;13.40;97840.00;;;;5055900;28;20057;-58
2023/04/24 10:41:37;;;;;;;5.78;4.90;;;;;13.50;97833.00;;;;5056110;28;20091;-59
2023/04/24 10:44:16;;;;;;;6.65;4.28;;;;;13.60;97850.00;;;;5055635;28;20048;-58
2023/04/24 10:46:44;;;;;;;5.15;4.60;;;;;13.60;97853.00;;;;5055730;28;20056;-58
2023/04/24 10:49:11;;;;;;;6.75;4.15;;;;;13.50;97866.00;;;;5054968;28;20745;-58
2023/04/24 10:51:46;;;;;;;5.15;3.83;;;;;13.40;97860.00;;;;5056534;28;20045;-58
2023/04/24 10:54:40;;;;;;;7.30;4.03;;;;;13.70;97857.00;;;;5056204;28;20048;-58
2023/04/24 10:57:22;;;;;;;5.50;4.03;;;;;13.70;97855.00;;;;5056330;28;20528;-60
2023/04/24 10:59:51;;;;;;;6.85;4.18;;;;;13.60;97859.00;;;;5054014;28;20405;-58
2023/04/24 11:02:34;;;;;;;5.88;4.00;;;;;13.50;97877.00;;;;5055027;28;20102;-57
2023/04/24 11:05:05;;;;;;;8.30;4.63;;;;;13.40;97873.00;;;;5055406;28;20502;-57
2023/04/24 11:08:10;;;;;;;4.53;4.03;;;;;13.20;97881.00;;;;5055780;28;20049;-59
2023/04/24 11:10:47;;;;;;;8.57;4.30;;;;;13.00;97884.00;;;;5053501;28;20060;-59
2023/04/24 11:13:17;;;;;;;6.07;4.03;;;;;12.80;97884.00;;;;5055381;28;20045;-58
2023/04/24 11:15:43;;;;;;;7.25;4.18;;;;;12.70;97877.00;;;;5055053;28;20049;-58
2023/04/24 11:18:15;;;;;;;4.40;4.00;;;;;12.70;97877.00;;;;5052948;28;20143;-57
2023/04/24 11:20:43;;;;;;;5.35;4.13;;;;;12.90;97890.00;;;;5054380;28;20078;-57
2023/04/24 11:23:12;;;;;;;5.28;3.97;;;;;12.90;97895.00;;;;5053126;28;20053;-59
2023/04/24 11:25:39;;;;;;;5.85;3.78;;;;;12.80;97885.00;;;;5053003;28;20502;-58
2023/04/24 11:28:05;;;;;;;6.22;3.83;;;;;12.70;97897.00;;;;5054560;28;20045;-58
2023/04/24 11:30:33;;;;;;;9.77;6.82;;;;;12.60;97898.00;;;;5036370;28;20053;-58
2023/04/24 11:33:04;;;;;;;6.40;4.85;;;;;12.50;97890.00;;;;5054150;28;20053;-58
2023/04/24 11:35:38;;;;;;;9.88;4.70;;;;;12.50;97901.00;;;;5054454;28;20533;-58
2023/04/24 11:38:05;;;;;;;;;;;;;12.80;97894.00;;;;5053253;28;20136;-58
2023/04/24 11:40:37;;;;;;;8.07;4.68;;;;;13.00;97898.00;;;;5052940;28;20332;-59
2023/04/24 11:43:05;;;;;;;10.65;8.48;;;;;13.20;97894.00;;;;5054440;28;20048;-59
2023/04/24 11:45:33;;;;;;;14.10;9.85;;;;;13.30;97895.00;;;;5054558;28;20049;-58
2023/04/24 11:48:00;;;;;;;8.43;6.18;;;;;13.40;97885.00;;;;5054753;28;20132;-59
2023/04/24 11:50:27;;;;;;;7.93;5.28;;;;;13.40;97895.00;;;;5055054;28;20072;-60
2023/04/24 11:52:55;;;;;;;15.05;10.00;;;;;13.50;97897.00;;;;5054414;28;20417;-59
2023/04/24 11:55:22;;;;;;;4.05;3.65;;;;;13.60;97907.00;;;;5054433;28;20068;-58
2023/04/24 11:57:52;;;;;;;5.18;4.40;;;;;13.80;97900.00;;;;5054482;28;20076;-58
2023/04/24 12:00:24;;;;;;;5.95;4.70;;;;;13.80;97900.00;;;;5053803;28;20045;-59
2023/04/24 12:03:02;;;;;;;6.78;4.95;;;;;13.90;97904.00;;;;5054026;28;20045;-59
2023/04/24 12:05:31;;;;;;;4.97;3.50;;;;;14.10;97907.00;;;;5053953;28;20095;-59
2023/04/24 12:07:57;;;;;;;8.73;4.05;;;;;14.10;97912.00;;;;5053865;28;20049;-59
2023/04/24 12:10:26;;;;;;;6.97;4.20;;;;;14.10;97908.00;;;;5053977;28;20049;-58
2023/04/24 12:12:54;;;;;;;7.97;4.03;;;;;13.90;97911.00;;;;5053821;28;20049;-59
2023/04/24 12:15:22;;;;;;;6.15;3.80;;;;;13.80;97915.00;;;;5054332;28;20085;-59
2023/04/24 12:17:51;;;;;;;6.40;4.30;;;;;13.80;97913.00;;;;5054620;28;20049;-58
2023/04/24 12:20:27;;;;;;;5.13;3.80;;;;;13.90;97903.00;;;;5054167;28;20045;-60
2023/04/24 12:22:56;;;;;;;5.97;4.15;;;;;14.20;97906.00;;;;5053423;28;20049;-58
2023/04/24 12:25:31;;;;;;;5.35;4.00;;;;;14.20;97908.00;;;;5053109;28;20095;-59